createdAt,value
2019-02-07T00:02:38.697Z,76.66
2019-02-07T00:07:40.007Z,75.93
2019-02-07T00:12:41.500Z,76.01
2019-02-07T00:17:42.853Z,75.87
2019-02-07T00:22:44.162Z,76.07
2019-02-07T00:27:45.471Z,76.63
2019-02-07T00:32:46.794Z,77.38
2019-02-07T00:37:48.342Z,77.08
2019-02-07T00:42:49.939Z,77.94
2019-02-07T00:47:51.337Z,78.53
2019-02-07T00:52:52.652Z,78.45
2019-02-07T00:57:54.759Z,79.02
2019-02-07T01:02:56.717Z,79.85
2019-02-07T01:07:58.184Z,79.80
2019-02-07T01:12:59.836Z,79.79
2019-02-07T01:18:01.135Z,79.58
2019-02-07T01:23:02.490Z,80.95
2019-02-07T01:28:03.805Z,79.94
2019-02-07T01:33:05.090Z,78.31
2019-02-07T01:38:07.954Z,78.04
2019-02-07T01:43:09.377Z,78.54
2019-02-07T01:48:10.678Z,77.95
2019-02-07T01:53:11.959Z,76.72
2019-02-07T01:58:13.234Z,76.60
2019-02-07T02:03:14.983Z,76.70
2019-02-07T02:08:16.686Z,76.71
2019-02-07T02:13:18.026Z,77.28
2019-02-07T02:18:19.791Z,77.44
2019-02-07T02:23:21.191Z,77.69
2019-02-07T02:28:22.607Z,78.86
2019-02-07T02:33:24.024Z,79.23
2019-02-07T02:38:25.255Z,79.39
2019-02-07T02:43:26.435Z,79.42
2019-02-07T02:48:27.684Z,79.74
2019-02-07T02:53:28.890Z,79.60
2019-02-07T02:58:30.322Z,79.54
2019-02-07T03:03:33.486Z,79.71
2019-02-07T03:08:42.774Z,79.54
2019-02-07T03:13:51.777Z,79.00
2019-02-07T03:19:10.165Z,78.19
2019-02-07T03:24:13.319Z,77.43
2019-02-07T03:29:22.495Z,77.48
2019-02-07T03:34:28.869Z,77.53
2019-02-07T03:39:32.047Z,77.35
2019-02-07T03:44:52.026Z,76.85
2019-02-07T03:50:01.516Z,77.26
2019-02-07T03:55:12.114Z,77.74
2019-02-07T04:00:18.328Z,77.62
2019-02-07T04:05:21.629Z,77.33
2019-02-07T04:10:24.897Z,77.45
2019-02-07T04:15:28.501Z,77.01
2019-02-07T04:20:48.070Z,77.36
2019-02-07T04:26:03.870Z,77.71
2019-02-07T04:31:12.829Z,77.47
2019-02-07T04:36:16.112Z,77.33
2019-02-07T04:41:36.025Z,77.47
2019-02-07T04:46:48.469Z,77.30
2019-02-07T04:52:08.974Z,76.51
2019-02-07T04:57:14.986Z,75.92
2019-02-07T05:02:33.470Z,75.31
2019-02-07T05:07:54.040Z,74.93
2019-02-07T05:13:15.564Z,74.81
2019-02-07T05:18:36.651Z,74.76
2019-02-07T05:23:46.036Z,74.65
2019-02-07T05:29:07.519Z,74.05
2019-02-07T05:34:13.817Z,73.91
2019-02-07T05:39:17.310Z,73.84
2019-02-07T05:44:29.485Z,73.25
2019-02-07T05:49:41.342Z,73.09
2019-02-07T05:55:00.996Z,73.40
2019-02-07T06:00:23.489Z,73.92
2019-02-07T06:05:43.441Z,74.23
2019-02-07T06:11:03.519Z,74.29
2019-02-07T06:16:07.147Z,74.17
2019-02-07T06:21:22.780Z,74.16
2019-02-07T06:26:35.508Z,74.13
2019-02-07T06:31:55.561Z,74.51
2019-02-07T06:36:58.788Z,74.48
2019-02-07T06:42:08.432Z,74.17
2019-02-07T06:47:13.451Z,72.12
2019-02-07T06:52:33.721Z,70.17
2019-02-07T06:57:52.447Z,69.95
2019-02-07T07:02:55.715Z,69.03
2019-02-07T07:08:04.797Z,68.15
2019-02-07T07:13:14.238Z,67.66
2019-02-07T07:18:34.134Z,66.90
2019-02-07T07:23:37.493Z,67.12
2019-02-07T07:28:43.764Z,65.86
2019-02-07T07:33:59.220Z,65.10
2019-02-07T07:39:14.622Z,64.54
2019-02-07T07:44:23.846Z,63.83
2019-02-07T07:49:38.888Z,63.46
2019-02-07T07:54:59.655Z,62.87
2019-02-07T08:00:05.372Z,62.15
2019-02-07T08:05:14.716Z,61.57
2019-02-07T08:10:34.896Z,61.07
2019-02-07T08:15:55.121Z,60.22
2019-02-07T08:20:58.414Z,60.84
2019-02-07T08:26:04.588Z,59.19
2019-02-07T08:31:07.812Z,57.95
2019-02-07T08:36:18.177Z,56.61
2019-02-07T08:41:21.592Z,56.03
2019-02-07T08:46:41.255Z,56.00
2019-02-07T08:51:53.617Z,56.43
2019-02-07T08:56:56.894Z,56.32
2019-02-07T09:02:15.081Z,55.26
2019-02-07T09:07:18.515Z,54.21
2019-02-07T09:12:38.614Z,54.41
2019-02-07T09:17:44.755Z,53.89
2019-02-07T09:22:55.979Z,53.76
2019-02-07T09:27:59.198Z,52.66
2019-02-07T09:33:18.877Z,51.03
2019-02-07T09:38:40.553Z,49.40
2019-02-07T09:43:46.733Z,49.20
2019-02-07T09:48:58.640Z,49.53
2019-02-07T09:54:04.784Z,51.89
2019-02-07T09:59:08.043Z,53.85
2019-02-07T10:04:15.351Z,51.08
2019-02-07T10:09:18.522Z,51.33
2019-02-07T10:14:21.614Z,52.52
2019-02-07T10:19:42.704Z,51.04
2019-02-07T10:24:58.252Z,51.28
2019-02-07T10:30:02.432Z,56.61
2019-02-07T10:35:09.697Z,55.67
2019-02-07T10:40:16.671Z,61.07
2019-02-07T10:45:22.794Z,63.07
2019-02-07T10:50:38.274Z,64.38
2019-02-07T10:56:00.349Z,65.71
2019-02-07T11:01:06.457Z,69.25
2019-02-07T11:06:18.654Z,82.50
2019-02-07T11:11:30.951Z,81.08
2019-02-07T11:16:42.833Z,82.45
2019-02-07T11:22:02.795Z,83.45
2019-02-07T11:27:18.379Z,86.84
2019-02-07T11:32:38.451Z,84.83
2019-02-07T11:37:59.904Z,80.54
2019-02-07T11:43:09.657Z,85.54
2019-02-07T11:48:13.052Z,85.86
2019-02-07T11:53:32.697Z,86.53
2019-02-07T11:58:38.863Z,83.61
2019-02-07T12:03:45.403Z,83.14
2019-02-07T12:08:51.533Z,83.08
2019-02-07T12:14:09.900Z,86.28
2019-02-07T12:19:25.206Z,86.33
2019-02-07T12:24:34.722Z,84.39
2019-02-07T12:29:44.684Z,86.90
2019-02-07T12:34:50.434Z,84.79
2019-02-07T12:39:53.590Z,84.87
2019-02-07T12:45:12.244Z,84.63
2019-02-07T12:50:15.479Z,84.15
2019-02-07T12:55:21.486Z,82.76
2019-02-07T13:00:41.755Z,84.51
2019-02-07T13:06:01.736Z,83.07
2019-02-07T13:11:15.048Z,82.96
2019-02-07T13:16:36.368Z,81.62
2019-02-07T13:21:56.511Z,81.60
2019-02-07T13:27:02.428Z,77.75
2019-02-07T13:32:10.390Z,74.87
2019-02-07T13:37:17.775Z,76.23
2019-02-07T13:42:32.958Z,78.10
2019-02-07T13:47:42.051Z,74.45
2019-02-07T13:52:51.457Z,77.67
2019-02-07T13:58:11.906Z,77.54
2019-02-07T14:03:33.420Z,77.11
2019-02-07T14:08:40.482Z,75.72
2019-02-07T14:13:59.866Z,77.15
2019-02-07T14:19:03.339Z,75.69
2019-02-07T14:24:09.513Z,73.79
2019-02-07T14:29:29.657Z,75.28
2019-02-07T14:34:41.928Z,72.41
2019-02-07T14:39:47.981Z,74.44
2019-02-07T14:44:53.844Z,73.02
2019-02-07T14:49:55.329Z,73.81
2019-02-07T14:54:57.560Z,74.07
2019-02-07T14:59:58.858Z,73.74
2019-02-07T15:05:00.532Z,73.33
2019-02-07T15:10:01.950Z,74.17
2019-02-07T15:15:09.078Z,73.32
2019-02-07T15:20:11.416Z,73.33
2019-02-07T15:25:12.985Z,74.52
2019-02-07T15:30:16.482Z,74.78
2019-02-07T15:35:24.244Z,75.58
2019-02-07T15:40:25.862Z,75.70
2019-02-07T15:45:27.440Z,76.75
2019-02-07T15:50:37.657Z,76.76
2019-02-07T15:55:34.187Z,77.74
2019-02-07T16:00:43.358Z,77.36
2019-02-07T16:05:45.261Z,79.42
2019-02-07T16:10:46.619Z,79.97
2019-02-07T16:15:48.305Z,80.69
2019-02-07T16:20:49.634Z,80.18
2019-02-07T16:25:51.301Z,80.56
2019-02-07T16:30:54.517Z,80.41
2019-02-07T16:35:55.784Z,80.67
2019-02-07T16:40:57.213Z,81.46
2019-02-07T16:45:58.885Z,81.54
2019-02-07T16:51:00.643Z,82.07
2019-02-07T16:56:02.192Z,82.34
2019-02-07T17:01:04.387Z,82.12
2019-02-07T17:06:05.775Z,82.53
2019-02-07T17:11:07.056Z,83.04
2019-02-07T17:16:08.452Z,83.86
2019-02-07T17:21:12.468Z,84.46
2019-02-07T17:26:13.259Z,84.87
2019-02-07T17:31:14.521Z,85.14
2019-02-07T17:36:17.007Z,85.35
2019-02-07T17:41:18.428Z,85.02
2019-02-07T17:46:19.708Z,85.52
2019-02-07T17:51:23.300Z,85.12
2019-02-07T17:56:24.494Z,86.13
2019-02-07T18:01:26.026Z,86.63
2019-02-07T18:06:27.721Z,86.35
2019-02-07T18:11:29.139Z,86.79
2019-02-07T18:16:31.019Z,86.49
2019-02-07T18:21:34.199Z,85.44
2019-02-07T18:26:35.688Z,85.64
2019-02-07T18:31:37.370Z,85.57
2019-02-07T18:36:39.054Z,86.14
2019-02-07T18:41:40.313Z,86.61
2019-02-07T18:46:41.901Z,86.23
2019-02-07T18:51:45.721Z,85.95
2019-02-07T18:56:46.833Z,85.33
2019-02-07T19:01:48.623Z,85.99
2019-02-07T19:06:50.851Z,88.16
2019-02-07T19:11:52.255Z,89.12
2019-02-07T19:16:53.684Z,88.89
2019-02-07T19:21:57.148Z,89.65
2019-02-07T19:26:58.196Z,88.85
2019-02-07T19:31:59.739Z,88.79
2019-02-07T19:37:01.286Z,89.40
2019-02-07T19:42:04.383Z,89.29
2019-02-07T19:47:05.943Z,88.42
2019-02-07T19:52:08.591Z,88.68
2019-02-07T19:57:10.158Z,88.84
2019-02-07T20:02:11.574Z,88.98
2019-02-07T20:07:13.424Z,88.72
2019-02-07T20:12:16.175Z,88.53
2019-02-07T20:17:17.556Z,88.74
2019-02-07T20:22:20.467Z,88.19
2019-02-07T20:27:31.692Z,88.35
2019-02-07T20:32:37.466Z,88.64
2019-02-07T20:37:38.783Z,88.73
2019-02-07T20:42:45.410Z,86.94
2019-02-07T20:47:48.598Z,88.44
2019-02-07T20:52:50.847Z,89.93
2019-02-07T20:57:53.249Z,88.68
2019-02-07T21:02:56.147Z,88.52
2019-02-07T21:07:57.714Z,89.54
2019-02-07T21:12:59.212Z,90.06
2019-02-07T21:18:00.876Z,90.04
2019-02-07T21:23:03.368Z,91.51
2019-02-07T21:28:06.185Z,90.95
2019-02-07T21:33:07.566Z,90.10
2019-02-07T21:38:08.994Z,90.37
2019-02-07T21:43:10.422Z,90.44
2019-02-07T21:48:12.224Z,91.44
2019-02-07T21:53:14.414Z,91.71
2019-02-07T21:58:15.917Z,90.68
2019-02-07T22:03:18.396Z,90.99
2019-02-07T22:08:19.807Z,91.60
2019-02-07T22:13:21.244Z,91.77
2019-02-07T22:18:22.929Z,91.06
2019-02-07T22:23:24.210Z,90.97
2019-02-07T22:28:25.747Z,89.87
2019-02-07T22:33:27.137Z,89.42
2019-02-07T22:38:28.464Z,88.71
2019-02-07T22:43:29.757Z,90.24
2019-02-07T22:48:31.151Z,89.87
2019-02-07T22:53:32.468Z,90.43
2019-02-07T22:58:33.961Z,90.29
2019-02-07T23:03:37.900Z,90.66
2019-02-07T23:08:39.525Z,90.51
2019-02-07T23:13:40.835Z,90.14
2019-02-07T23:18:42.582Z,89.84
2019-02-07T23:23:44.558Z,90.09
2019-02-07T23:28:46.136Z,89.69
2019-02-07T23:33:47.619Z,90.68
2019-02-07T23:38:48.905Z,90.74
2019-02-07T23:43:55.285Z,90.15
2019-02-07T23:48:56.968Z,90.30
2019-02-07T23:53:58.267Z,90.52
2019-02-07T23:58:59.595Z,90.35
